AirNav   Everest Fuels
 
 1636 users online  

58MO Mercy Hospital Jefferson Heliport
Crystal City, Missouri, USA

GOING TO CRYSTAL CITY?


FAA INFORMATION EFFECTIVE 25 MARCH 2021

Location

FAA Identifier: 58MO
Lat/Long: 38-11-44.0100N 090-23-36.1800W
38-11.733500N 090-23.603000W
38.1955583,-90.3933833
(estimated)
Elevation: 435 ft. / 133 m (estimated)
Variation: 02E (1985)
From city: 1 mile S of CRYSTAL CITY, MO
Time zone: UTC -5 (UTC -6 during Standard Time)
Zip code: 63028

Heliport Operations

Heliport use: Private use, MEDICAL.
Activation date: 07/1989
Control tower: no
ARTCC: KANSAS CITY CENTER
FSS: SAINT LOUIS FLIGHT SERVICE STATION
Attendance: CONTINUOUS
Wind indicator: yes
Segmented circle: yes

Nearby radio navigation aids

VOR radial/distance  VOR name  Freq  Var
FAMr345/32.2FARMINGTON VORTAC115.7001E
TOYr210/39.5TROY VORTAC116.0004E

Heliport Services

Runway Information

Helipad H1

Dimensions: 60 x 60 ft. / 18 x 18 m
Surface: concrete
Latitude: 38-11.733500N
Longitude: 090-23.603000W
Elevation: 435.0 ft.
Traffic pattern: leftleft

Heliport Ownership and Management from official FAA records

Ownership: Privately-owned
Owner: MERCY HOSPITAL JEFFERSON
HWY 61 SOUTH
CRYSTAL CITY, MO 63019
Phone 314-933-1000
Manager: JOSEPH COPUS
1400 US HIGHWAY 61
CRYSTAL CITY, MO 63019
Phone 314-933-1000
SENIOR MANAGER OF FACILITIES.

Heliport Operational Statistics

Aircraft based on the field: 1
Helicopters: 1
    

Additional Remarks

A52-H1 70' BLDG 75' NORTH; 30' TREES 100' EAST & SOUTH.
FOR CD CTC ST LOUIS APCH AT 314-890-1018.

Instrument Procedures

There are no published instrument procedures at 58MO.

Some nearby airports with instrument procedures:

KFES - Festus Memorial Airport (0 nm E)
8WC - Washington County Airport (23 nm SW)
KCPS - St Louis Downtown Airport (25 nm NE)
KFAM - Farmington Regional Airport (26 nm S)
KSUS - Spirit of St Louis Airport (31 nm NW)
 
Loc | Ops | Rwys | IFR | FBO | Links
Com | Nav | Svcs | Stats | Notes
Area around 58MO (Mercy Hospital Jefferson Heliport)
 
Road maps at: MapQuest Bing Google
 
Aerial photo
No photo
 
Sectional chart

 
Airport distance calculator
Flying to Mercy Hospital Jefferson Heliport? Find the distance to fly.

From to 58MO

Sunrise and sunset
Times for 21-Apr-2021
 Local
(UTC-5)
 Zulu
(UTC)
Morning civil twilight05:5110:51
Sunrise06:1911:19
Sunset19:4200:42
Evening civil twilight20:1001:10

Current date and time
Zulu (UTC)  21-Apr-2021 14:34:15
Local (UTC-5)  21-Apr-2021 09:34:15
 
METAR
KCPS 
25nm NE 
211353Z 27006KT 10SM CLR 04/M02 A3024 RMK AO2 SLP242 T00441022
KFAM 
26nm S 
211356Z AUTO 30007KT 10SM CLR 03/M03 A3025 RMK AO2 SLP263 T00281028
KSUS 
30nm NW 
211354Z 26005KT 10SM CLR 04/M02 A3024 RMK AO2 SLP246 T00441017
KPCD 
32nm SE 
211415Z AUTO 32006KT 10SM CLR 05/00 A3026 RMK AO2 T00470001
KSAR 
33nm E 
211422Z AUTO 29006KT 10SM CLR 04/00 A3026 RMK AO2
KBLV 
33nm NE 
211356Z AUTO 28007KT 10SM CLR 05/M00 A3022 RMK AO2 SLP240 T00451001 CHINO RWY14R $
KSTL 
33nm N 
211351Z 26008KT 10SM FEW100 06/M02 A3024 RMK AO2 SLP246 T00561022
KFYG 
37nm NW 
211415Z AUTO 27003KT 10SM CLR 04/M02 A3026 RMK AO2
KSET 
44nm N 
211354Z AUTO 27006KT 10SM CLR 04/M03 A3023 RMK AO2 SLP239 T00441033
KALN 
45nm N 
211350Z 26008KT 10SM CLR 04/00 A3023
TAF
KCPS 
25nm NE 
211120Z 2112/2212 27005KT P6SM FEW250 FM211900 28009KT P6SM VCSH BKN060 FM212300 29007KT P6SM BKN070
KSUS 
30nm NW 
211120Z 2112/2212 26005KT P6SM FEW250 FM211900 28008KT P6SM VCSH BKN070 FM212300 29008KT P6SM SCT090
NOTAMs
Click for the latest NOTAMs
NOTAMs are issued by the DoD/FAA and will open in a separate window not controlled by AirNav.

 

 
 

Would you like to see your business listed on this page?

 If your business provides an interesting product or service to pilots, flight crews, aircraft, or users of the Mercy Hospital Jefferson Heliport, you should consider listing it here.  To start the listing process, click on the button below
 
Add a business
 

Other Pages about Mercy Hospital Jefferson Heliport

Update a link
 
Copyright © AirNav, LLC. All rights reserved. Privacy Policy  Contact